Tropical Cyclones
[Index]
Main Index Home Page Stock Weather Photos Extreme Storms Discussion Storm News and Storm Chasing Reports Tropical Cyclones / Hurricanes / Typhoons Weather Data and Links Wild Fires / Bushfires Weather Observation Techniques Weather Picture Catalogue Tornado Pictures and Reports Stock Video Footage and DVDs for sale
Season 2012-2013 Tropical Cyclone VICTORIA Track Map
Season 2012-2013 Summaries (Operational Data): [AU] [SIO] [SPAC] [SH]
<<- Previous TC | 2012-2013 Season | Next TC ->>

click for intensity scale information  Lat/long Grid: Show Hide

 Date Labels: Show Hide

Operational Tropical Cyclone Data : JTWC Advisories

Name: VICTORIA
Number: 1322

04 Apr 2013 18:00 UTC to 13 Apr 2013 06:00 UTC

    date/time    lat    long     hPa   cat  kts
2013-04-04 18    4.2    96.2    1010         15          
2013-04-05 00    4.7    93.0    1010         15          
2013-04-05 06    4.5    94.0    1010         15          
2013-04-05 12    4.6    93.5    1010         15          
2013-04-05 18    4.7    93.1    1010         15          
2013-04-06 00    5.3    92.7    1010         15          
2013-04-06 06    6.6    98.3    1010         15          
2013-04-06 12    6.7    98.2    1010         15          
2013-04-06 18    6.8    98.1    1010         15          
2013-04-07 00    7.1    99.8    1010         15          
2013-04-07 06    8.3   100.4    1010         15          
2013-04-07 12    8.3   101.1    1010         15          
2013-04-07 18    8.6   101.3    1010         15          
2013-04-08 00    9.0   101.6    1010         15          
2013-04-08 06    9.4   101.8    1007         20          
2013-04-08 12    9.9   102.0    1004         25          
2013-04-08 18   10.7   102.2    1000         30          
2013-04-09 00   11.6   102.4     996    1    35          
2013-04-09 06   12.5   102.7     993    1    40          
2013-04-09 12   13.3   103.0     989    1    45          
2013-04-09 18   14.1   103.4     985    2    50          
2013-04-10 00   14.8   103.6     978    2    60          
2013-04-10 06   15.6   103.8     967    3    75          
2013-04-10 12   16.2   103.9     970    3    70          
2013-04-10 18   17.0   104.1     974    3    65          
2013-04-11 00   17.7   104.3     974    3    65          
2013-04-11 06   18.5   104.6     974    3    65          
2013-04-11 12   19.8   105.0     985    2    50          
2013-04-11 18   21.1   105.3     989    1    45          
2013-04-12 00   23.1   106.1     996    1    35          
2013-04-12 06   27.0   105.8    1000         30          
2013-04-12 12   28.8   106.3    1005                     
2013-04-12 18   29.5   105.8    1007                     
2013-04-13 00   29.9   104.8    1008                     
2013-04-13 06   30.4   104.3    1009                     
Winds are 10-min average.

Tropical cyclone tracks developed by Michael Bath using operational warnings and advisories and Google Maps.


[Australian Severe Weather index] [Copyright Notice] [Email Contacts] [Search This Site] [Privacy Policy]
Document: tropical_cyclone_victoria.htm Updated: 2 May 2017